Time;durP1;ratioP1;P1;durP2;ratioP2;P2;SDS_P1;SDS_P2;PMS_P1;PMS_P2;Temp;Humidity;BMP_temperature;BMP_pressure;BME280_temperature;BME280_humidity;BME280_pressure;Samples;Min_cycle;Max_cycle;Signal;HPM_P1;HPM_P2
2022/12/30 00:01:05;;;;;;;9.73;3.87;;;;;;;;;;5030709;28;20318;-87
2022/12/30 00:03:36;;;;;;;8.27;3.90;;;;;;;;;;5049259;28;20203;-86
2022/12/30 00:06:04;;;;;;;11.50;3.23;;;;;;;;;;5036986;28;20264;-86
2022/12/30 00:08:48;;;;;;;6.27;2.00;;;;;;;;;;5038729;28;20229;-86
2022/12/30 00:11:18;;;;;;;15.37;3.63;;;;;;;;;;5059723;28;20193;-86
2022/12/30 00:33:22;;;;;;;7.10;2.17;;;;;;;;;;5051815;28;20296;-86
2022/12/30 00:35:52;;;;;;;10.40;2.30;;;;;;;;;;5023602;28;20210;-86
2022/12/30 00:38:21;;;;;;;17.40;3.80;;;;;;;;;;5038003;28;20195;-86
2022/12/30 00:43:35;;;;;;;3.70;3.23;;;;;;;;;;5034129;28;20269;-86
2022/12/30 00:46:03;;;;;;;7.20;4.23;;;;;;;;;;5028259;28;20212;-86
2022/12/30 00:56:51;;;;;;;1.73;1.63;;;;;;;;;;5049172;28;20223;-86
2022/12/30 00:59:19;;;;;;;10.63;3.40;;;;;;;;;;5046961;28;20203;-86
2022/12/30 01:01:48;;;;;;;3.60;1.83;;;;;;;;;;5055327;28;20286;-87
2022/12/30 01:04:17;;;;;;;8.97;2.20;;;;;;;;;;5025297;28;20203;-86
2022/12/30 01:06:46;;;;;;;4.50;2.40;;;;;;;;;;5037137;28;20221;-86
2022/12/30 01:09:15;;;;;;;3.50;1.13;;;;;;;;;;5037152;28;20218;-86
2022/12/30 01:11:43;;;;;;;11.27;2.63;;;;;;;;;;5037120;28;20200;-86
2022/12/30 01:14:11;;;;;;;12.00;2.70;;;;;;;;;;5023492;28;20261;-86
2022/12/30 01:16:40;;;;;;;2.17;1.80;;;;;;;;;;5018128;28;20235;-86
2022/12/30 01:19:08;;;;;;;2.00;1.60;;;;;;;;;;5049558;28;20226;-86
2022/12/30 01:21:37;;;;;;;17.90;4.53;;;;;;;;;;5045748;28;20243;-87
2022/12/30 01:24:06;;;;;;;13.40;3.70;;;;;;;;;;5041548;28;20203;-87
2022/12/30 01:26:35;;;;;;;10.93;3.13;;;;;;;;;;5036852;28;20265;-86
2022/12/30 01:29:03;;;;;;;8.70;2.83;;;;;;;;;;5054951;28;20233;-87
2022/12/30 01:31:32;;;;;;;21.93;5.83;;;;;;;;;;5055104;28;20198;-86
2022/12/30 01:34:00;;;;;;;8.20;2.53;;;;;;;;;;5033334;28;20199;-86
2022/12/30 01:36:29;;;;;;;13.30;3.60;;;;;;;;;;5028414;28;20264;-87
2022/12/30 01:38:57;;;;;;;13.97;4.30;;;;;;;;;;5037657;28;20273;-86
2022/12/30 01:41:27;;;;;;;18.40;5.17;;;;;;;;;;5029708;28;20210;-86
2022/12/30 01:43:55;;;;;;;20.80;4.83;;;;;;;;;;5035831;28;20203;-86
2022/12/30 01:46:25;;;;;;;20.63;5.00;;;;;;;;;;5036529;28;20210;-86
2022/12/30 01:48:55;;;;;;;24.90;8.07;;;;;;;;;;5044795;28;20225;-86
2022/12/30 01:51:26;;;;;;;22.47;5.43;;;;;;;;;;5054415;28;20285;-86
2022/12/30 01:53:56;;;;;;;22.10;7.40;;;;;;;;;;5036342;28;20252;-86
2022/12/30 01:56:30;;;;;;;20.87;8.47;;;;;;;;;;5036229;28;20238;-86
2022/12/30 01:59:01;;;;;;;16.90;4.57;;;;;;;;;;5032435;28;20202;-86
2022/12/30 02:01:29;;;;;;;22.33;5.83;;;;;;;;;;5033933;28;20253;-87
2022/12/30 02:03:59;;;;;;;17.30;4.33;;;;;;;;;;5031079;28;20198;-86
2022/12/30 02:06:31;;;;;;;23.33;7.40;;;;;;;;;;5033733;28;20203;-86
2022/12/30 02:09:00;;;;;;;15.90;3.00;;;;;;;;;;5023274;28;20194;-86
2022/12/30 02:11:30;;;;;;;14.53;3.77;;;;;;;;;;5036735;28;20228;-86
2022/12/30 02:13:58;;;;;;;22.97;5.77;;;;;;;;;;5035838;28;20206;-86
2022/12/30 02:16:41;;;;;;;24.20;7.43;;;;;;;;;;5032646;28;20215;-86
2022/12/30 02:19:34;;;;;;;24.30;6.10;;;;;;;;;;5052968;28;20268;-86
2022/12/30 02:22:08;;;;;;;22.13;6.53;;;;;;;;;;5021826;28;20234;-86
2022/12/30 02:24:57;;;;;;;19.90;5.47;;;;;;;;;;5034231;28;20202;-86
2022/12/30 02:27:32;;;;;;;21.10;4.57;;;;;;;;;;5040795;28;20237;-86
2022/12/30 02:30:13;;;;;;;7.43;3.10;;;;;;;;;;5028403;28;20197;-87
2022/12/30 02:33:08;;;;;;;15.77;5.10;;;;;;;;;;5036515;28;20243;-87
2022/12/30 02:35:41;;;;;;;17.80;5.13;;;;;;;;;;5036148;28;20221;-86
2022/12/30 02:38:13;;;;;;;15.63;5.00;;;;;;;;;;5023939;28;20194;-87
2022/12/30 02:46:24;;;;;;;15.93;5.53;;;;;;;;;;5039625;28;20226;-86
2022/12/30 02:48:57;;;;;;;14.67;5.60;;;;;;;;;;5027464;28;20225;-86
2022/12/30 02:54:12;;;;;;;16.27;4.63;;;;;;;;;;5019872;28;20234;-87
2022/12/30 02:56:48;;;;;;;9.43;3.47;;;;;;;;;;5020036;28;20237;-86
2022/12/30 03:04:59;;;;;;;13.47;4.80;;;;;;;;;;5039686;28;20204;-86
2022/12/30 03:07:29;;;;;;;14.00;4.57;;;;;;;;;;5036138;28;20270;-87
2022/12/30 03:12:55;;;;;;;15.10;4.10;;;;;;;;;;5073703;28;20195;-86
2022/12/30 03:15:26;;;;;;;9.70;4.73;;;;;;;;;;5039324;28;20209;-87
2022/12/30 03:17:55;;;;;;;12.17;4.27;;;;;;;;;;5043339;28;20221;-87
2022/12/30 03:20:25;;;;;;;11.53;5.33;;;;;;;;;;5057157;28;20203;-87
2022/12/30 03:28:27;;;;;;;13.47;6.00;;;;;;;;;;5041780;28;20209;-87
2022/12/30 03:30:59;;;;;;;6.83;3.00;;;;;;;;;;5059312;28;20208;-87
2022/12/30 03:33:28;;;;;;;13.33;5.60;;;;;;;;;;5059705;28;20244;-86
2022/12/30 03:36:01;;;;;;;15.83;4.47;;;;;;;;;;5026078;28;20194;-87
2022/12/30 03:38:32;;;;;;;14.10;5.03;;;;;;;;;;5052743;28;20213;-86
2022/12/30 03:41:03;;;;;;;12.80;3.70;;;;;;;;;;5050791;28;20223;-87
2022/12/30 03:43:32;;;;;;;16.90;6.70;;;;;;;;;;5039396;28;20206;-87
2022/12/30 03:46:00;;;;;;;11.07;5.57;;;;;;;;;;5047193;28;20198;-87
2022/12/30 03:48:29;;;;;;;17.07;6.00;;;;;;;;;;5022495;28;20194;-87
2022/12/30 03:50:58;;;;;;;16.50;6.70;;;;;;;;;;5049015;28;20205;-87
2022/12/30 03:53:27;;;;;;;11.20;4.57;;;;;;;;;;5041132;28;20210;-87
2022/12/30 03:55:55;;;;;;;15.13;5.80;;;;;;;;;;5038309;28;20226;-87
2022/12/30 03:58:24;;;;;;;13.93;5.47;;;;;;;;;;5039117;28;20202;-87
2022/12/30 04:00:52;;;;;;;12.63;6.33;;;;;;;;;;5038647;28;20209;-87
2022/12/30 04:03:20;;;;;;;18.83;5.30;;;;;;;;;;5038709;28;20202;-87
2022/12/30 04:05:53;;;;;;;17.13;6.50;;;;;;;;;;5038290;28;20232;-87
2022/12/30 04:08:23;;;;;;;15.77;4.83;;;;;;;;;;5018730;28;20203;-87
2022/12/30 04:10:52;;;;;;;13.77;5.53;;;;;;;;;;5046153;28;20202;-87
2022/12/30 04:13:20;;;;;;;21.20;6.03;;;;;;;;;;5051154;28;20190;-86
2022/12/30 04:15:49;;;;;;;17.10;4.83;;;;;;;;;;5036855;28;20203;-87
2022/12/30 04:18:18;;;;;;;11.73;3.90;;;;;;;;;;5027498;28;20216;-86
2022/12/30 04:20:47;;;;;;;10.37;3.10;;;;;;;;;;5045387;28;20206;-87
2022/12/30 04:23:16;;;;;;;16.37;5.57;;;;;;;;;;5066361;28;20218;-87
2022/12/30 04:25:45;;;;;;;9.73;4.47;;;;;;;;;;5024953;28;20199;-87
2022/12/30 04:28:14;;;;;;;13.30;5.23;;;;;;;;;;5056349;28;20202;-86
2022/12/30 04:30:42;;;;;;;16.63;5.27;;;;;;;;;;5034065;28;20207;-87
2022/12/30 04:33:11;;;;;;;8.33;3.13;;;;;;;;;;5018606;28;20203;-86
2022/12/30 04:35:39;;;;;;;11.27;3.93;;;;;;;;;;5036949;28;20217;-87
2022/12/30 04:38:07;;;;;;;15.70;5.07;;;;;;;;;;5055471;28;20210;-87
2022/12/30 04:40:36;;;;;;;9.83;3.70;;;;;;;;;;5038267;28;20256;-87
2022/12/30 04:43:06;;;;;;;15.80;5.83;;;;;;;;;;5024955;28;20222;-87
2022/12/30 04:45:34;;;;;;;15.27;5.33;;;;;;;;;;5024654;28;20202;-86
2022/12/30 04:48:02;;;;;;;10.37;3.23;;;;;;;;;;5055722;28;20194;-87
2022/12/30 04:50:31;;;;;;;13.27;4.87;;;;;;;;;;5025768;28;20206;-87
2022/12/30 04:52:59;;;;;;;14.70;6.43;;;;;;;;;;5025284;28;20203;-87
2022/12/30 04:55:28;;;;;;;4.20;2.73;;;;;;;;;;5050398;28;20230;-87
2022/12/30 04:57:56;;;;;;;11.17;3.93;;;;;;;;;;5037486;28;20245;-87
2022/12/30 05:00:26;;;;;;;14.97;5.13;;;;;;;;;;5045498;28;20259;-87
2022/12/30 05:02:54;;;;;;;13.90;5.50;;;;;;;;;;5055843;28;20214;-87
2022/12/30 05:05:23;;;;;;;8.33;3.93;;;;;;;;;;5044627;28;20237;-87
2022/12/30 05:07:51;;;;;;;11.07;4.40;;;;;;;;;;5037167;28;20210;-87
2022/12/30 05:10:20;;;;;;;15.20;4.80;;;;;;;;;;5047622;28;20204;-87
2022/12/30 05:12:48;;;;;;;11.60;5.73;;;;;;;;;;5053407;28;20226;-87
2022/12/30 05:15:17;;;;;;;7.60;3.07;;;;;;;;;;5037459;28;20301;-87
2022/12/30 05:17:47;;;;;;;12.03;4.20;;;;;;;;;;5037257;28;20233;-87
2022/12/30 05:20:15;;;;;;;13.93;4.60;;;;;;;;;;5037196;28;20202;-87
2022/12/30 05:22:43;;;;;;;11.20;6.10;;;;;;;;;;5019380;28;20211;-87
2022/12/30 05:27:58;;;;;;;13.23;4.87;;;;;;;;;;5026287;28;20225;-87
2022/12/30 05:30:26;;;;;;;14.40;5.57;;;;;;;;;;5035579;28;20218;-87
2022/12/30 05:32:56;;;;;;;13.47;4.47;;;;;;;;;;5036814;28;20206;-87
2022/12/30 05:35:24;;;;;;;13.10;5.03;;;;;;;;;;5037143;28;20237;-87
2022/12/30 05:37:53;;;;;;;15.50;5.90;;;;;;;;;;5042528;28;20195;-87
2022/12/30 05:40:21;;;;;;;20.33;8.37;;;;;;;;;;5021514;28;20260;-87
2022/12/30 05:42:50;;;;;;;17.73;5.40;;;;;;;;;;5054540;28;20257;-86
2022/12/30 05:45:18;;;;;;;15.67;6.87;;;;;;;;;;5036956;28;20238;-87
2022/12/30 05:47:46;;;;;;;13.23;5.67;;;;;;;;;;5033630;28;20207;-87
2022/12/30 05:50:16;;;;;;;11.83;4.50;;;;;;;;;;5036355;28;20274;-87
2022/12/30 05:52:45;;;;;;;11.37;5.53;;;;;;;;;;5042696;28;20207;-86
2022/12/30 05:55:13;;;;;;;9.63;4.73;;;;;;;;;;5022075;28;20234;-87
2022/12/30 05:57:41;;;;;;;12.77;5.77;;;;;;;;;;5033168;28;20237;-87
2022/12/30 06:00:10;;;;;;;12.67;5.43;;;;;;;;;;5043161;28;20245;-87
2022/12/30 06:02:39;;;;;;;12.60;6.23;;;;;;;;;;5046935;28;20241;-86
2022/12/30 06:05:09;;;;;;;6.77;4.20;;;;;;;;;;5016249;28;20206;-87
2022/12/30 06:07:38;;;;;;;7.80;4.50;;;;;;;;;;5029901;28;20202;-86
2022/12/30 06:10:08;;;;;;;10.83;6.40;;;;;;;;;;5035855;28;20216;-87
2022/12/30 06:12:36;;;;;;;10.00;3.37;;;;;;;;;;5034342;28;20226;-87
2022/12/30 06:15:05;;;;;;;15.17;6.63;;;;;;;;;;5021302;28;20226;-87
2022/12/30 06:17:33;;;;;;;9.23;5.47;;;;;;;;;;5036559;28;20209;-87
2022/12/30 06:20:02;;;;;;;12.37;6.27;;;;;;;;;;5035782;28;20202;-87
2022/12/30 06:22:30;;;;;;;12.97;4.77;;;;;;;;;;5056250;28;20227;-87
2022/12/30 06:25:00;;;;;;;11.70;6.10;;;;;;;;;;5055599;28;20208;-87
2022/12/30 06:27:28;;;;;;;12.77;4.97;;;;;;;;;;5038576;28;20210;-86
2022/12/30 06:29:57;;;;;;;17.27;6.13;;;;;;;;;;5016684;28;20204;-87
2022/12/30 06:32:25;;;;;;;16.23;7.03;;;;;;;;;;5039540;28;20198;-87
2022/12/30 06:34:54;;;;;;;13.87;7.40;;;;;;;;;;5052993;28;20206;-87
2022/12/30 06:37:22;;;;;;;9.60;5.13;;;;;;;;;;5031327;28;20208;-87
2022/12/30 06:39:50;;;;;;;13.70;6.30;;;;;;;;;;5035940;28;20210;-86
2022/12/30 06:42:20;;;;;;;19.90;7.93;;;;;;;;;;5035116;28;20240;-87
2022/12/30 06:44:48;;;;;;;16.90;7.20;;;;;;;;;;5023392;28;20256;-87
2022/12/30 06:47:17;;;;;;;9.43;4.90;;;;;;;;;;5035516;28;20213;-87
2022/12/30 06:49:45;;;;;;;18.93;6.77;;;;;;;;;;5034475;28;20209;-86
2022/12/30 06:52:14;;;;;;;14.00;7.20;;;;;;;;;;5035996;28;20198;-87
2022/12/30 06:54:42;;;;;;;14.90;6.40;;;;;;;;;;5034512;28;20222;-86
2022/12/30 06:57:10;;;;;;;18.43;7.90;;;;;;;;;;5024167;28;20299;-87
2022/12/30 06:59:40;;;;;;;18.73;6.73;;;;;;;;;;5048460;28;20243;-87
2022/12/30 07:02:10;;;;;;;14.50;7.87;;;;;;;;;;5052814;28;20245;-87
2022/12/30 07:04:39;;;;;;;18.43;7.73;;;;;;;;;;5055649;28;20223;-87
2022/12/30 07:07:07;;;;;;;17.03;9.30;;;;;;;;;;5053323;28;20203;-87
2022/12/30 07:09:36;;;;;;;18.73;9.70;;;;;;;;;;5028916;28;20207;-87
2022/12/30 07:12:04;;;;;;;16.87;8.13;;;;;;;;;;5033171;28;20206;-87
2022/12/30 07:14:32;;;;;;;13.37;7.53;;;;;;;;;;5047952;28;20598;-87
2022/12/30 07:17:02;;;;;;;20.10;10.00;;;;;;;;;;5026821;28;20245;-87
2022/12/30 07:19:31;;;;;;;15.17;8.73;;;;;;;;;;5048087;28;20210;-87
2022/12/30 07:21:59;;;;;;;18.00;9.13;;;;;;;;;;5040949;28;20235;-87
2022/12/30 07:24:27;;;;;;;20.77;9.03;;;;;;;;;;5034439;28;20270;-87
2022/12/30 07:26:56;;;;;;;14.50;6.90;;;;;;;;;;5051278;28;20216;-87
2022/12/30 07:29:24;;;;;;;24.10;10.00;;;;;;;;;;5038862;28;20208;-87
2022/12/30 07:31:52;;;;;;;14.60;7.53;;;;;;;;;;5025876;28;20214;-87
2022/12/30 07:34:22;;;;;;;15.07;6.67;;;;;;;;;;5039107;28;20234;-86
2022/12/30 07:36:50;;;;;;;17.30;8.50;;;;;;;;;;5043309;28;20203;-87
2022/12/30 07:39:19;;;;;;;21.43;8.97;;;;;;;;;;5031117;28;20210;-87
2022/12/30 07:41:47;;;;;;;18.70;9.73;;;;;;;;;;5034951;28;20209;-87
2022/12/30 07:44:16;;;;;;;19.70;10.17;;;;;;;;;;5029232;28;20206;-87
2022/12/30 07:46:44;;;;;;;19.47;8.60;;;;;;;;;;5053241;28;20209;-87
2022/12/30 07:49:12;;;;;;;21.77;8.87;;;;;;;;;;5039117;28;20202;-87
2022/12/30 07:51:42;;;;;;;15.77;7.73;;;;;;;;;;5035674;28;20211;-87
2022/12/30 07:54:10;;;;;;;16.97;7.23;;;;;;;;;;5038866;28;20212;-87
2022/12/30 07:56:39;;;;;;;10.20;4.53;;;;;;;;;;5040924;28;20244;-87
2022/12/30 07:59:07;;;;;;;13.57;5.97;;;;;;;;;;5038463;28;20202;-87
2022/12/30 08:01:36;;;;;;;11.03;5.57;;;;;;;;;;5033981;28;20199;-87
2022/12/30 08:04:04;;;;;;;17.00;6.30;;;;;;;;;;5044656;28;20225;-88
2022/12/30 08:06:54;;;;;;;14.37;6.47;;;;;;;;;;5039117;28;20195;-86
2022/12/30 08:09:22;;;;;;;12.83;6.73;;;;;;;;;;5038332;28;20224;-86
2022/12/30 08:11:51;;;;;;;17.47;7.10;;;;;;;;;;5038094;28;20328;-86
2022/12/30 08:14:19;;;;;;;14.90;6.13;;;;;;;;;;5055692;28;20263;-86
2022/12/30 08:16:48;;;;;;;20.97;9.60;;;;;;;;;;5037795;28;20228;-87
2022/12/30 08:19:16;;;;;;;17.80;6.50;;;;;;;;;;5037581;28;20289;-86
2022/12/30 08:21:44;;;;;;;20.33;7.27;;;;;;;;;;5025748;28;20202;-87
2022/12/30 08:24:14;;;;;;;14.57;6.23;;;;;;;;;;5023553;28;20215;-87
2022/12/30 08:26:42;;;;;;;16.03;8.57;;;;;;;;;;5045831;28;20216;-86
2022/12/30 08:29:11;;;;;;;17.57;8.00;;;;;;;;;;5061147;28;20233;-87
2022/12/30 08:31:39;;;;;;;16.63;7.90;;;;;;;;;;5057229;28;20215;-87
2022/12/30 08:34:08;;;;;;;10.43;6.30;;;;;;;;;;5028987;28;20207;-87
2022/12/30 08:36:36;;;;;;;19.67;5.47;;;;;;;;;;5036808;28;20205;-86
2022/12/30 08:39:05;;;;;;;12.13;8.97;;;;;;;;;;5034664;28;20208;-87
2022/12/30 08:41:36;;;;;;;17.17;9.50;;;;;;;;;;5027953;28;20191;-86
2022/12/30 08:44:05;;;;;;;13.43;7.77;;;;;;;;;;5040441;28;20309;-87
2022/12/30 08:46:34;;;;;;;12.13;9.27;;;;;;;;;;5035423;28;20242;-87
2022/12/30 08:49:02;;;;;;;9.53;5.20;;;;;;;;;;5025940;28;20201;-87
2022/12/30 08:51:31;;;;;;;13.43;7.57;;;;;;;;;;5040372;28;20203;-87
2022/12/30 08:53:59;;;;;;;20.77;9.80;;;;;;;;;;5026566;28;20198;-87
2022/12/30 08:56:29;;;;;;;13.77;6.27;;;;;;;;;;5056680;28;20253;-87
2022/12/30 08:58:59;;;;;;;8.67;4.90;;;;;;;;;;5065187;28;20202;-87
2022/12/30 09:01:28;;;;;;;10.03;7.17;;;;;;;;;;5037478;28;20210;-87
2022/12/30 09:03:57;;;;;;;15.50;7.80;;;;;;;;;;5047794;28;20222;-87
2022/12/30 09:06:27;;;;;;;12.67;8.10;;;;;;;;;;5038697;28;20226;-86
2022/12/30 09:08:56;;;;;;;15.30;9.07;;;;;;;;;;5025407;28;20207;-86
2022/12/30 09:11:26;;;;;;;15.20;9.33;;;;;;;;;;5036357;28;20293;-86
2022/12/30 09:13:54;;;;;;;12.67;7.57;;;;;;;;;;5036901;28;20225;-86
2022/12/30 09:16:29;;;;;;;16.00;8.43;;;;;;;;;;5017213;28;20198;-86
2022/12/30 09:18:58;;;;;;;10.77;6.63;;;;;;;;;;5018290;28;20206;-86
2022/12/30 09:21:26;;;;;;;14.83;5.80;;;;;;;;;;5043470;28;20198;-87
2022/12/30 09:23:55;;;;;;;8.30;5.50;;;;;;;;;;5023586;28;20203;-87
2022/12/30 09:26:25;;;;;;;9.47;5.73;;;;;;;;;;5028091;28;20239;-87
2022/12/30 09:28:53;;;;;;;15.07;8.13;;;;;;;;;;5033032;28;20202;-87
2022/12/30 09:31:22;;;;;;;10.80;7.13;;;;;;;;;;5036729;28;20210;-87
2022/12/30 09:33:52;;;;;;;15.03;6.70;;;;;;;;;;5040762;28;20226;-87
2022/12/30 09:36:20;;;;;;;13.80;7.83;;;;;;;;;;5036943;28;20293;-87
2022/12/30 09:38:49;;;;;;;10.90;7.07;;;;;;;;;;5048854;28;20199;-86
2022/12/30 09:43:14;;;;;;;11.77;7.33;;;;;;;;;;5034247;28;20221;-86
2022/12/30 09:44:16;;;;;;;12.80;6.87;;;;;;;;;;5043220;28;20199;-87
2022/12/30 09:46:46;;;;;;;9.03;6.47;;;;;;;;;;5040671;28;20202;-87
2022/12/30 09:49:22;;;;;;;9.80;6.03;;;;;;;;;;5053728;28;20194;-87
2022/12/30 09:51:59;;;;;;;10.63;8.23;;;;;;;;;;5023065;28;20200;-86
2022/12/30 09:54:29;;;;;;;8.23;5.30;;;;;;;;;;5036184;28;20198;-87
2022/12/30 09:57:30;;;;;;;9.30;7.93;;;;;;;;;;5041107;28;20226;-86
2022/12/30 09:59:53;;;;;;;11.50;7.87;;;;;;;;;;5042661;28;20289;-86
2022/12/30 10:02:23;;;;;;;10.90;6.70;;;;;;;;;;5045518;28;20210;-87
2022/12/30 10:04:53;;;;;;;12.53;7.07;;;;;;;;;;5036027;28;20216;-87
2022/12/30 10:07:26;;;;;;;9.03;5.70;;;;;;;;;;5053990;28;20195;-85
2022/12/30 10:09:57;;;;;;;11.77;6.43;;;;;;;;;;5047284;28;20203;-86
2022/12/30 10:12:31;;;;;;;8.70;5.13;;;;;;;;;;5052613;28;20221;-86
2022/12/30 10:15:07;;;;;;;9.37;7.50;;;;;;;;;;5036410;28;20194;-86
2022/12/30 10:17:45;;;;;;;10.13;6.33;;;;;;;;;;5023464;28;20251;-86
2022/12/30 10:20:23;;;;;;;8.50;5.50;;;;;;;;;;5035926;28;20236;-86
2022/12/30 10:23:03;;;;;;;7.07;6.33;;;;;;;;;;5035143;28;20190;-86
2022/12/30 10:25:39;;;;;;;11.37;6.37;;;;;;;;;;5022574;28;20211;-86
2022/12/30 10:28:09;;;;;;;10.80;6.00;;;;;;;;;;5025658;28;20182;-86
2022/12/30 10:30:39;;;;;;;9.97;6.90;;;;;;;;;;5018404;28;20249;-86
2022/12/30 10:33:09;;;;;;;7.53;5.13;;;;;;;;;;5034153;28;20218;-86
2022/12/30 10:35:40;;;;;;;10.50;6.77;;;;;;;;;;5034252;28;20195;-85
2022/12/30 10:38:12;;;;;;;8.57;5.90;;;;;;;;;;5016394;28;20203;-86
2022/12/30 10:40:44;;;;;;;8.87;5.80;;;;;;;;;;5046590;28;20199;-86
2022/12/30 10:43:31;;;;;;;6.73;4.90;;;;;;;;;;5035561;28;20203;-85
2022/12/30 10:46:05;;;;;;;10.90;6.63;;;;;;;;;;5035493;28;20217;-86
2022/12/30 10:48:42;;;;;;;6.87;4.57;;;;;;;;;;5032120;28;20233;-87
2022/12/30 10:51:14;;;;;;;7.13;4.13;;;;;;;;;;5027867;28;20216;-86
2022/12/30 10:53:44;;;;;;;7.40;5.27;;;;;;;;;;5058948;28;20232;-86
2022/12/30 10:56:15;;;;;;;9.43;5.57;;;;;;;;;;5059450;28;20296;-86
2022/12/30 10:58:46;;;;;;;7.83;4.97;;;;;;;;;;5028000;28;20210;-86
2022/12/30 11:01:16;;;;;;;7.97;4.57;;;;;;;;;;5031541;28;20201;-86
2022/12/30 11:03:46;;;;;;;8.77;4.50;;;;;;;;;;5019875;28;20207;-86
2022/12/30 11:06:24;;;;;;;11.37;5.73;;;;;;;;;;5036025;28;20210;-86
2022/12/30 11:08:54;;;;;;;7.43;5.10;;;;;;;;;;5050141;28;20213;-86
2022/12/30 11:14:42;;;;;;;7.23;5.00;;;;;;;;;;5039643;28;20198;-86
2022/12/30 11:14:42;;;;;;;8.67;5.43;;;;;;;;;;5033243;28;20201;-86
2022/12/30 11:17:21;;;;;;;7.07;4.67;;;;;;;;;;5019963;28;20211;-86
2022/12/30 11:19:51;;;;;;;9.17;5.97;;;;;;;;;;5020130;28;20199;-86
2022/12/30 11:22:22;;;;;;;8.27;4.03;;;;;;;;;;5037689;28;20273;-86
2022/12/30 11:24:58;;;;;;;7.83;4.80;;;;;;;;;;5037937;28;20201;-86
2022/12/30 11:27:32;;;;;;;9.37;4.43;;;;;;;;;;5066105;28;20201;-86
2022/12/30 11:30:01;;;;;;;9.70;4.50;;;;;;;;;;5019956;28;20203;-86
2022/12/30 11:32:29;;;;;;;5.33;4.00;;;;;;;;;;5019938;28;20211;-86
2022/12/30 11:34:58;;;;;;;6.17;3.07;;;;;;;;;;5050335;28;20190;-86
2022/12/30 11:37:34;;;;;;;10.40;3.87;;;;;;;;;;5033134;28;20220;-86
2022/12/30 11:40:25;;;;;;;8.07;4.90;;;;;;;;;;5075261;28;20252;-86
2022/12/30 11:43:05;;;;;;;8.47;4.77;;;;;;;;;;5057730;28;20206;-86
2022/12/30 11:45:34;;;;;;;7.73;4.33;;;;;;;;;;5019792;28;20234;-86
2022/12/30 11:48:02;;;;;;;7.00;3.90;;;;;;;;;;5030115;28;20264;-86
2022/12/30 11:50:31;;;;;;;7.70;3.87;;;;;;;;;;5049446;28;20198;-87
2022/12/30 11:53:02;;;;;;;6.53;3.53;;;;;;;;;;5029544;28;20237;-85
2022/12/30 11:55:31;;;;;;;7.47;4.13;;;;;;;;;;5030677;28;20250;-86
2022/12/30 11:58:02;;;;;;;6.50;4.37;;;;;;;;;;5054476;28;20295;-87
2022/12/30 12:00:40;;;;;;;4.10;2.87;;;;;;;;;;5028683;28;20201;-86
2022/12/30 12:03:14;;;;;;;6.13;4.23;;;;;;;;;;5052366;28;20200;-87
2022/12/30 12:05:44;;;;;;;10.73;4.10;;;;;;;;;;5038112;28;20263;-86
2022/12/30 12:08:19;;;;;;;8.83;4.97;;;;;;;;;;5037668;28;20264;-86
2022/12/30 12:10:51;;;;;;;5.63;3.40;;;;;;;;;;5055230;28;20284;-86
2022/12/30 12:13:23;;;;;;;7.80;5.00;;;;;;;;;;5053805;28;20207;-86
2022/12/30 12:15:53;;;;;;;9.63;4.40;;;;;;;;;;5024586;28;20196;-86
2022/12/30 12:18:24;;;;;;;8.27;3.90;;;;;;;;;;5055905;28;20214;-85
2022/12/30 12:20:58;;;;;;;6.67;3.47;;;;;;;;;;5024196;28;20194;-86
2022/12/30 12:23:32;;;;;;;8.77;4.60;;;;;;;;;;5027011;28;20233;-86
2022/12/30 12:26:05;;;;;;;10.07;3.57;;;;;;;;;;5034174;28;20237;-86
2022/12/30 12:28:34;;;;;;;11.73;5.17;;;;;;;;;;5031133;28;20206;-85
2022/12/30 12:31:13;;;;;;;7.93;4.27;;;;;;;;;;5049350;28;20250;-85
2022/12/30 12:33:43;;;;;;;5.60;2.87;;;;;;;;;;5058745;28;20213;-86
2022/12/30 12:36:16;;;;;;;5.67;3.03;;;;;;;;;;5037697;28;20248;-86
2022/12/30 12:38:54;;;;;;;10.30;4.57;;;;;;;;;;5037213;28;20289;-85
2022/12/30 12:41:26;;;;;;;9.50;3.70;;;;;;;;;;5037421;28;20207;-85
2022/12/30 12:44:03;;;;;;;9.07;4.57;;;;;;;;;;5041474;28;20194;-85
2022/12/30 12:46:40;;;;;;;9.73;4.23;;;;;;;;;;5037147;28;20218;-85
2022/12/30 12:49:29;;;;;;;10.70;3.57;;;;;;;;;;5037385;28;20289;-86
2022/12/30 12:52:03;;;;;;;11.27;3.80;;;;;;;;;;5023881;28;20214;-86
2022/12/30 12:54:45;;;;;;;7.97;3.37;;;;;;;;;;5030339;28;20202;-84
2022/12/30 12:57:20;;;;;;;11.00;4.70;;;;;;;;;;5035047;28;20233;-86
2022/12/30 12:59:58;;;;;;;9.87;4.50;;;;;;;;;;5053255;28;20262;-86
2022/12/30 13:02:37;;;;;;;7.00;3.80;;;;;;;;;;5045097;28;20237;-86
2022/12/30 13:05:24;;;;;;;12.93;4.30;;;;;;;;;;5034666;28;20201;-86
2022/12/30 13:07:56;;;;;;;10.03;4.90;;;;;;;;;;5027049;28;20273;-86
2022/12/30 13:10:48;;;;;;;8.33;4.20;;;;;;;;;;5024045;28;20199;-86
2022/12/30 13:13:40;;;;;;;8.37;3.50;;;;;;;;;;5037027;28;20209;-84
2022/12/30 13:16:11;;;;;;;6.93;3.70;;;;;;;;;;5055634;28;20204;-85
2022/12/30 13:18:42;;;;;;;9.17;4.70;;;;;;;;;;5036367;28;20268;-85
2022/12/30 13:21:13;;;;;;;6.30;2.77;;;;;;;;;;5030470;28;20199;-85
2022/12/30 13:23:43;;;;;;;6.10;4.33;;;;;;;;;;5016866;28;20195;-85
2022/12/30 13:26:13;;;;;;;7.80;4.03;;;;;;;;;;5024292;28;20198;-85
2022/12/30 13:28:43;;;;;;;10.57;4.80;;;;;;;;;;5036265;28;20210;-84
2022/12/30 13:31:17;;;;;;;9.20;4.00;;;;;;;;;;5046039;28;20207;-85
2022/12/30 13:33:53;;;;;;;9.40;4.00;;;;;;;;;;5016909;28;20213;-85
2022/12/30 13:36:22;;;;;;;8.30;4.03;;;;;;;;;;5016863;28;20221;-84
2022/12/30 13:38:55;;;;;;;9.83;4.43;;;;;;;;;;5029871;28;20206;-84
2022/12/30 13:41:36;;;;;;;7.83;3.20;;;;;;;;;;5028729;28;20297;-85
2022/12/30 13:44:05;;;;;;;8.37;4.43;;;;;;;;;;5016446;28;20228;-85
2022/12/30 13:46:35;;;;;;;7.40;2.83;;;;;;;;;;5017648;28;20215;-85
2022/12/30 13:49:06;;;;;;;6.90;3.57;;;;;;;;;;5034808;28;20202;-85
2022/12/30 13:51:34;;;;;;;7.73;3.37;;;;;;;;;;5035810;28;20206;-85
2022/12/30 13:54:09;;;;;;;9.63;3.90;;;;;;;;;;5036130;28;20213;-85
2022/12/30 13:56:39;;;;;;;5.80;4.70;;;;;;;;;;5053701;28;20241;-85
2022/12/30 13:59:21;;;;;;;9.47;4.07;;;;;;;;;;5024919;28;20233;-85
2022/12/30 14:01:49;;;;;;;11.83;5.30;;;;;;;;;;5023368;28;20244;-85
2022/12/30 14:04:21;;;;;;;14.77;5.93;;;;;;;;;;5053265;28;20252;-85
2022/12/30 14:06:50;;;;;;;6.43;3.53;;;;;;;;;;5035715;28;20272;-85
2022/12/30 14:09:19;;;;;;;2.87;2.10;;;;;;;;;;5021022;28;20226;-85
2022/12/30 14:12:08;;;;;;;6.50;3.70;;;;;;;;;;5041874;28;20256;-85
2022/12/30 14:14:38;;;;;;;4.80;2.93;;;;;;;;;;5032391;28;20199;-85
2022/12/30 14:17:07;;;;;;;7.10;3.57;;;;;;;;;;5028532;28;20215;-84
2022/12/30 14:19:46;;;;;;;4.03;2.77;;;;;;;;;;5035606;28;20209;-84
2022/12/30 14:22:47;;;;;;;5.27;2.97;;;;;;;;;;5037131;28;20248;-85
2022/12/30 14:25:27;;;;;;;5.90;3.53;;;;;;;;;;5046336;28;20190;-85
2022/12/30 14:28:00;;;;;;;4.97;2.77;;;;;;;;;;5040353;28;20202;-85
2022/12/30 14:30:35;;;;;;;7.27;4.07;;;;;;;;;;5037889;28;20236;-85
2022/12/30 14:33:06;;;;;;;4.13;3.57;;;;;;;;;;5044850;28;20209;-85
2022/12/30 14:35:35;;;;;;;4.20;3.17;;;;;;;;;;5043481;28;20202;-85
2022/12/30 14:38:18;;;;;;;4.03;2.23;;;;;;;;;;5054749;28;20206;-86
2022/12/30 14:40:55;;;;;;;6.13;3.50;;;;;;;;;;5031559;28;20205;-85
2022/12/30 14:43:24;;;;;;;5.27;3.47;;;;;;;;;;5019046;28;20199;-85
2022/12/30 14:46:13;;;;;;;4.63;3.13;;;;;;;;;;5035987;28;20210;-86
2022/12/30 14:48:57;;;;;;;3.97;3.17;;;;;;;;;;5053383;28;20217;-86
2022/12/30 14:51:26;;;;;;;2.50;2.30;;;;;;;;;;5022079;28;20209;-86
2022/12/30 14:53:54;;;;;;;3.50;2.80;;;;;;;;;;5049204;28;20257;-86
2022/12/30 14:56:23;;;;;;;3.33;2.40;;;;;;;;;;5029495;28;20253;-86
2022/12/30 14:58:52;;;;;;;4.20;2.97;;;;;;;;;;5052835;28;20214;-86
2022/12/30 15:01:23;;;;;;;3.00;2.70;;;;;;;;;;5052034;28;20201;-85
2022/12/30 15:04:06;;;;;;;3.73;3.37;;;;;;;;;;5072328;28;20206;-86
2022/12/30 15:06:35;;;;;;;3.90;3.47;;;;;;;;;;5049330;28;20253;-86
2022/12/30 15:09:07;;;;;;;4.20;3.70;;;;;;;;;;5036155;28;20222;-86
2022/12/30 15:11:37;;;;;;;4.60;3.60;;;;;;;;;;5053153;28;20260;-86
2022/12/30 15:14:13;;;;;;;4.60;3.40;;;;;;;;;;5039910;28;20258;-85
2022/12/30 15:16:43;;;;;;;5.20;4.67;;;;;;;;;;5032449;28;20257;-85
2022/12/30 15:19:22;;;;;;;6.23;5.73;;;;;;;;;;5019372;28;20221;-86
2022/12/30 15:21:50;;;;;;;5.90;5.03;;;;;;;;;;5035780;28;20214;-85
2022/12/30 15:24:19;;;;;;;5.63;5.13;;;;;;;;;;5035994;28;20580;-85
2022/12/30 15:26:49;;;;;;;6.10;5.60;;;;;;;;;;5052305;28;20206;-85
2022/12/30 15:29:20;;;;;;;7.10;5.40;;;;;;;;;;5035582;28;20229;-85
2022/12/30 15:31:51;;;;;;;3.07;2.73;;;;;;;;;;5035342;28;20203;-85
2022/12/30 15:34:20;;;;;;;7.80;7.20;;;;;;;;;;5035938;28;20218;-85
2022/12/30 15:36:49;;;;;;;7.03;6.30;;;;;;;;;;5035451;28;20207;-85
2022/12/30 15:39:19;;;;;;;7.50;6.90;;;;;;;;;;5027020;28;20199;-85
2022/12/30 15:41:49;;;;;;;9.63;9.03;;;;;;;;;;5032259;28;20307;-84
2022/12/30 15:44:19;;;;;;;9.90;9.27;;;;;;;;;;5035472;28;20220;-85
2022/12/30 15:46:56;;;;;;;8.97;8.27;;;;;;;;;;5033074;28;20206;-85
2022/12/30 15:49:25;;;;;;;9.47;8.73;;;;;;;;;;5022233;28;20226;-85
2022/12/30 15:51:54;;;;;;;11.57;10.67;;;;;;;;;;5037144;28;20302;-85
2022/12/30 15:54:26;;;;;;;10.73;9.93;;;;;;;;;;5038762;28;20274;-85
2022/12/30 15:56:56;;;;;;;8.93;8.23;;;;;;;;;;5056328;28;20245;-85